sensor_id;sensor_type;location;lat;lon;timestamp;pressure;altitude;pressure_sealevel;temperature;humidity
7109;BME280;29079;41.930;25.558;2023-07-02T00:00:24;98822.94;;;21.47;100.00
7109;BME280;29079;41.930;25.558;2023-07-02T00:03:11;98800.13;;;21.54;100.00
7109;BME280;29079;41.930;25.558;2023-07-02T00:06:00;98792.66;;;21.25;100.00
7109;BME280;29079;41.930;25.558;2023-07-02T00:08:49;98792.47;;;21.26;100.00
7109;BME280;29079;41.930;25.558;2023-07-02T00:11:37;98776.59;;;21.04;100.00
7109;BME280;29079;41.930;25.558;2023-07-02T00:14:25;98775.31;;;21.07;100.00
7109;BME280;29079;41.930;25.558;2023-07-02T00:17:13;98777.47;;;21.98;100.00
7109;BME280;29079;41.930;25.558;2023-07-02T00:20:01;98772.47;;;22.43;100.00
7109;BME280;29079;41.930;25.558;2023-07-02T00:22:55;98780.13;;;22.35;100.00
7109;BME280;29079;41.930;25.558;2023-07-02T00:25:45;98778.91;;;21.26;100.00
7109;BME280;29079;41.930;25.558;2023-07-02T00:28:33;98767.91;;;21.39;100.00
7109;BME280;29079;41.930;25.558;2023-07-02T00:31:21;98775.75;;;21.29;100.00
7109;BME280;29079;41.930;25.558;2023-07-02T00:34:09;98783.88;;;21.48;100.00
7109;BME280;29079;41.930;25.558;2023-07-02T00:36:57;98789.44;;;22.08;100.00
7109;BME280;29079;41.930;25.558;2023-07-02T00:39:45;98781.31;;;22.39;100.00
7109;BME280;29079;41.930;25.558;2023-07-02T00:42:34;98785.53;;;22.04;100.00
7109;BME280;29079;41.930;25.558;2023-07-02T00:45:22;98793.28;;;21.27;100.00
7109;BME280;29079;41.930;25.558;2023-07-02T00:48:13;98785.78;;;21.03;100.00
7109;BME280;29079;41.930;25.558;2023-07-02T00:51:01;98785.50;;;21.12;100.00
7109;BME280;29079;41.930;25.558;2023-07-02T00:53:51;98794.00;;;21.59;100.00
7109;BME280;29079;41.930;25.558;2023-07-02T00:56:39;98798.53;;;22.02;100.00
7109;BME280;29079;41.930;25.558;2023-07-02T00:59:28;98802.22;;;21.71;100.00
7109;BME280;29079;41.930;25.558;2023-07-02T01:02:17;98799.66;;;22.43;100.00
7109;BME280;29079;41.930;25.558;2023-07-02T01:05:05;98803.03;;;22.08;100.00
7109;BME280;29079;41.930;25.558;2023-07-02T01:07:52;98757.00;;;21.02;100.00
7109;BME280;29079;41.930;25.558;2023-07-02T01:10:40;98814.22;;;21.63;100.00
7109;BME280;29079;41.930;25.558;2023-07-02T01:13:28;98810.25;;;22.33;100.00
7109;BME280;29079;41.930;25.558;2023-07-02T01:16:18;98808.75;;;22.19;100.00
7109;BME280;29079;41.930;25.558;2023-07-02T01:19:11;98807.47;;;22.21;100.00
7109;BME280;29079;41.930;25.558;2023-07-02T01:22:02;98801.44;;;22.19;100.00
7109;BME280;29079;41.930;25.558;2023-07-02T01:24:51;98801.03;;;21.23;100.00
7109;BME280;29079;41.930;25.558;2023-07-02T01:27:39;98798.69;;;21.70;100.00
7109;BME280;29079;41.930;25.558;2023-07-02T01:30:27;98788.75;;;21.20;100.00
7109;BME280;29079;41.930;25.558;2023-07-02T01:33:14;98813.13;;;22.20;100.00
7109;BME280;29079;41.930;25.558;2023-07-02T01:36:03;98814.22;;;22.49;100.00
7109;BME280;29079;41.930;25.558;2023-07-02T01:38:52;98799.00;;;21.62;100.00
7109;BME280;29079;41.930;25.558;2023-07-02T01:41:42;98799.78;;;21.00;100.00
7109;BME280;29079;41.930;25.558;2023-07-02T01:44:30;98804.81;;;21.22;100.00
7109;BME280;29079;41.930;25.558;2023-07-02T01:47:18;98809.63;;;21.82;100.00
7109;BME280;29079;41.930;25.558;2023-07-02T01:50:07;98804.91;;;21.34;100.00
7109;BME280;29079;41.930;25.558;2023-07-02T01:52:55;98796.88;;;21.02;100.00
7109;BME280;29079;41.930;25.558;2023-07-02T01:55:44;98801.34;;;21.15;100.00
7109;BME280;29079;41.930;25.558;2023-07-02T01:58:32;98800.00;;;21.24;100.00
7109;BME280;29079;41.930;25.558;2023-07-02T02:01:20;98794.97;;;21.02;100.00
7109;BME280;29079;41.930;25.558;2023-07-02T02:04:09;98793.47;;;21.07;100.00
7109;BME280;29079;41.930;25.558;2023-07-02T02:06:57;98792.69;;;20.99;100.00
7109;BME280;29079;41.930;25.558;2023-07-02T02:09:45;98802.38;;;21.14;100.00
7109;BME280;29079;41.930;25.558;2023-07-02T02:12:34;98775.50;;;20.87;100.00
7109;BME280;29079;41.930;25.558;2023-07-02T02:15:22;98783.81;;;20.60;100.00
7109;BME280;29079;41.930;25.558;2023-07-02T02:18:10;98779.53;;;20.78;100.00
7109;BME280;29079;41.930;25.558;2023-07-02T02:20:58;98784.50;;;20.49;100.00
7109;BME280;29079;41.930;25.558;2023-07-02T02:23:46;98777.53;;;20.66;100.00
7109;BME280;29079;41.930;25.558;2023-07-02T02:26:34;98785.50;;;21.12;100.00
7109;BME280;29079;41.930;25.558;2023-07-02T02:29:24;98782.53;;;20.63;100.00
7109;BME280;29079;41.930;25.558;2023-07-02T02:32:11;98790.53;;;21.52;100.00
7109;BME280;29079;41.930;25.558;2023-07-02T02:35:01;98792.28;;;21.83;100.00
7109;BME280;29079;41.930;25.558;2023-07-02T02:37:49;98805.72;;;21.34;100.00
7109;BME280;29079;41.930;25.558;2023-07-02T02:40:37;98806.38;;;20.54;100.00
7109;BME280;29079;41.930;25.558;2023-07-02T02:43:24;98805.63;;;20.40;100.00
7109;BME280;29079;41.930;25.558;2023-07-02T02:46:19;98800.97;;;20.86;100.00
7109;BME280;29079;41.930;25.558;2023-07-02T02:49:07;98802.53;;;20.37;100.00
7109;BME280;29079;41.930;25.558;2023-07-02T02:51:55;98804.00;;;20.32;100.00
7109;BME280;29079;41.930;25.558;2023-07-02T02:54:43;98809.94;;;20.16;100.00
7109;BME280;29079;41.930;25.558;2023-07-02T02:57:31;98799.53;;;20.13;100.00
7109;BME280;29079;41.930;25.558;2023-07-02T03:00:18;98799.47;;;20.90;100.00
7109;BME280;29079;41.930;25.558;2023-07-02T03:03:08;98805.59;;;21.48;100.00
7109;BME280;29079;41.930;25.558;2023-07-02T03:05:56;98784.94;;;21.47;100.00
7109;BME280;29079;41.930;25.558;2023-07-02T03:08:43;98805.19;;;21.51;100.00
7109;BME280;29079;41.930;25.558;2023-07-02T03:11:31;98799.63;;;20.63;100.00
7109;BME280;29079;41.930;25.558;2023-07-02T03:14:19;98798.72;;;20.76;100.00
7109;BME280;29079;41.930;25.558;2023-07-02T03:17:07;98799.13;;;21.05;100.00
7109;BME280;29079;41.930;25.558;2023-07-02T03:19:57;98795.91;;;20.58;100.00
7109;BME280;29079;41.930;25.558;2023-07-02T03:22:45;98803.97;;;20.39;100.00
7109;BME280;29079;41.930;25.558;2023-07-02T03:25:32;98807.72;;;20.77;100.00
7109;BME280;29079;41.930;25.558;2023-07-02T03:28:20;98816.09;;;20.68;100.00
7109;BME280;29079;41.930;25.558;2023-07-02T03:31:08;98808.38;;;20.65;100.00
7109;BME280;29079;41.930;25.558;2023-07-02T03:33:56;98810.56;;;20.50;100.00
7109;BME280;29079;41.930;25.558;2023-07-02T03:36:45;98801.03;;;21.04;100.00
7109;BME280;29079;41.930;25.558;2023-07-02T03:39:33;98804.09;;;21.33;100.00
7109;BME280;29079;41.930;25.558;2023-07-02T03:42:21;98799.53;;;21.27;100.00
7109;BME280;29079;41.930;25.558;2023-07-02T03:45:09;98796.38;;;21.12;100.00
7109;BME280;29079;41.930;25.558;2023-07-02T03:47:57;98780.09;;;20.86;100.00
7109;BME280;29079;41.930;25.558;2023-07-02T03:50:45;98781.25;;;20.72;100.00
7109;BME280;29079;41.930;25.558;2023-07-02T03:53:35;98791.94;;;20.92;100.00
7109;BME280;29079;41.930;25.558;2023-07-02T03:56:23;98797.47;;;20.79;100.00
7109;BME280;29079;41.930;25.558;2023-07-02T03:59:11;98804.03;;;20.90;100.00
7109;BME280;29079;41.930;25.558;2023-07-02T04:01:58;98814.47;;;20.93;100.00
7109;BME280;29079;41.930;25.558;2023-07-02T04:04:46;98758.84;;;20.51;100.00
7109;BME280;29079;41.930;25.558;2023-07-02T04:07:34;98813.34;;;21.00;100.00
7109;BME280;29079;41.930;25.558;2023-07-02T04:10:23;98815.72;;;21.15;100.00
7109;BME280;29079;41.930;25.558;2023-07-02T04:13:11;98811.78;;;21.11;100.00
7109;BME280;29079;41.930;25.558;2023-07-02T04:15:59;98823.16;;;21.01;100.00
7109;BME280;29079;41.930;25.558;2023-07-02T04:18:47;98819.03;;;20.92;100.00
7109;BME280;29079;41.930;25.558;2023-07-02T04:21:35;98797.47;;;20.79;100.00
7109;BME280;29079;41.930;25.558;2023-07-02T04:24:23;98816.53;;;21.16;100.00
7109;BME280;29079;41.930;25.558;2023-07-02T04:27:14;98819.53;;;21.33;100.00
7109;BME280;29079;41.930;25.558;2023-07-02T04:30:24;98833.88;;;22.14;100.00
7109;BME280;29079;41.930;25.558;2023-07-02T04:33:12;98840.09;;;21.22;100.00
7109;BME280;29079;41.930;25.558;2023-07-02T04:36:00;98840.31;;;21.20;100.00
7109;BME280;29079;41.930;25.558;2023-07-02T04:38:48;98846.00;;;20.87;100.00
7109;BME280;29079;41.930;25.558;2023-07-02T04:41:36;98844.94;;;20.88;100.00
7109;BME280;29079;41.930;25.558;2023-07-02T04:44:25;98852.97;;;20.76;100.00
7109;BME280;29079;41.930;25.558;2023-07-02T04:47:15;98847.06;;;20.86;100.00
7109;BME280;29079;41.930;25.558;2023-07-02T04:50:04;98845.13;;;20.93;100.00
7109;BME280;29079;41.930;25.558;2023-07-02T04:52:52;98844.59;;;20.78;100.00
7109;BME280;29079;41.930;25.558;2023-07-02T04:55:43;98852.91;;;20.83;100.00
7109;BME280;29079;41.930;25.558;2023-07-02T04:58:31;98850.78;;;20.92;100.00
7109;BME280;29079;41.930;25.558;2023-07-02T05:01:20;98866.56;;;21.01;100.00
7109;BME280;29079;41.930;25.558;2023-07-02T05:04:09;98856.88;;;21.12;100.00
7109;BME280;29079;41.930;25.558;2023-07-02T05:06:59;98856.22;;;21.61;100.00
7109;BME280;29079;41.930;25.558;2023-07-02T05:09:47;98857.91;;;21.11;100.00
7109;BME280;29079;41.930;25.558;2023-07-02T05:12:38;98867.03;;;21.17;100.00
7109;BME280;29079;41.930;25.558;2023-07-02T05:15:26;98877.78;;;21.05;100.00
7109;BME280;29079;41.930;25.558;2023-07-02T05:18:15;98884.03;;;21.05;100.00
7109;BME280;29079;41.930;25.558;2023-07-02T05:23:51;98884.47;;;21.02;100.00
7109;BME280;29079;41.930;25.558;2023-07-02T05:26:39;98885.22;;;21.16;100.00
7109;BME280;29079;41.930;25.558;2023-07-02T05:29:27;98876.06;;;21.11;100.00
7109;BME280;29079;41.930;25.558;2023-07-02T05:32:14;98882.53;;;21.10;100.00
7109;BME280;29079;41.930;25.558;2023-07-02T05:35:04;98884.59;;;21.14;100.00
7109;BME280;29079;41.930;25.558;2023-07-02T05:37:52;98879.56;;;21.18;100.00
7109;BME280;29079;41.930;25.558;2023-07-02T05:40:40;98881.94;;;21.08;100.00
7109;BME280;29079;41.930;25.558;2023-07-02T05:43:28;98885.28;;;20.78;100.00
7109;BME280;29079;41.930;25.558;2023-07-02T05:46:15;98887.53;;;20.81;100.00
7109;BME280;29079;41.930;25.558;2023-07-02T05:49:04;98899.50;;;20.66;100.00
7109;BME280;29079;41.930;25.558;2023-07-02T05:51:53;98901.44;;;20.91;100.00
7109;BME280;29079;41.930;25.558;2023-07-02T05:54:41;98896.41;;;21.52;100.00
7109;BME280;29079;41.930;25.558;2023-07-02T05:57:29;98900.88;;;21.39;100.00
7109;BME280;29079;41.930;25.558;2023-07-02T06:00:18;98912.38;;;21.67;98.76
7109;BME280;29079;41.930;25.558;2023-07-02T06:03:06;98911.00;;;21.76;99.00
7109;BME280;29079;41.930;25.558;2023-07-02T06:05:54;98898.78;;;21.67;98.98
7109;BME280;29079;41.930;25.558;2023-07-02T06:08:43;98907.31;;;21.70;99.91
7109;BME280;29079;41.930;25.558;2023-07-02T06:11:31;98909.56;;;21.73;99.74
7109;BME280;29079;41.930;25.558;2023-07-02T06:14:19;98916.53;;;21.88;95.28
7109;BME280;29079;41.930;25.558;2023-07-02T06:17:08;98922.00;;;21.81;97.01
7109;BME280;29079;41.930;25.558;2023-07-02T06:19:56;98927.06;;;21.78;97.57
7109;BME280;29079;41.930;25.558;2023-07-02T06:22:44;98918.25;;;21.82;96.41
7109;BME280;29079;41.930;25.558;2023-07-02T06:25:33;98917.56;;;21.87;95.67
7109;BME280;29079;41.930;25.558;2023-07-02T06:28:21;98928.75;;;21.97;93.15
7109;BME280;29079;41.930;25.558;2023-07-02T06:31:10;98929.81;;;21.96;93.13
7109;BME280;29079;41.930;25.558;2023-07-02T06:33:59;98930.66;;;22.15;91.81
7109;BME280;29079;41.930;25.558;2023-07-02T06:36:47;98932.16;;;22.30;91.07
7109;BME280;29079;41.930;25.558;2023-07-02T06:39:35;98924.91;;;22.05;91.56
7109;BME280;29079;41.930;25.558;2023-07-02T06:42:25;98939.78;;;22.21;91.86
7109;BME280;29079;41.930;25.558;2023-07-02T06:45:13;98949.16;;;22.43;91.64
7109;BME280;29079;41.930;25.558;2023-07-02T06:48:01;98940.25;;;22.18;92.33
7109;BME280;29079;41.930;25.558;2023-07-02T06:50:49;98931.25;;;21.99;93.04
7109;BME280;29079;41.930;25.558;2023-07-02T06:53:37;98931.63;;;22.21;93.62
7109;BME280;29079;41.930;25.558;2023-07-02T06:56:25;98924.69;;;22.06;93.74
7109;BME280;29079;41.930;25.558;2023-07-02T06:59:19;98929.75;;;21.84;94.68
7109;BME280;29079;41.930;25.558;2023-07-02T07:02:07;98932.91;;;22.00;95.13
7109;BME280;29079;41.930;25.558;2023-07-02T07:04:55;98926.78;;;22.04;94.01
7109;BME280;29079;41.930;25.558;2023-07-02T07:07:43;98926.28;;;22.14;94.11
7109;BME280;29079;41.930;25.558;2023-07-02T07:10:31;98927.13;;;22.15;95.46
7109;BME280;29079;41.930;25.558;2023-07-02T07:13:21;98929.53;;;22.41;94.88
7109;BME280;29079;41.930;25.558;2023-07-02T07:16:11;98927.88;;;22.40;96.09
7109;BME280;29079;41.930;25.558;2023-07-02T07:18:59;98932.69;;;22.57;93.73
7109;BME280;29079;41.930;25.558;2023-07-02T07:21:47;98935.84;;;22.54;94.94
7109;BME280;29079;41.930;25.558;2023-07-02T07:24:34;98863.25;;;22.24;94.89
7109;BME280;29079;41.930;25.558;2023-07-02T07:27:22;98929.41;;;22.97;91.45
7109;BME280;29079;41.930;25.558;2023-07-02T07:30:11;98918.41;;;23.34;88.52
7109;BME280;29079;41.930;25.558;2023-07-02T07:33:02;98911.38;;;23.15;90.73
7109;BME280;29079;41.930;25.558;2023-07-02T07:35:50;98914.44;;;23.06;91.21
7109;BME280;29079;41.930;25.558;2023-07-02T07:38:37;98917.72;;;23.08;91.48
7109;BME280;29079;41.930;25.558;2023-07-02T07:41:26;98912.75;;;23.05;91.16
7109;BME280;29079;41.930;25.558;2023-07-02T07:44:13;98906.41;;;23.11;87.46
7109;BME280;29079;41.930;25.558;2023-07-02T07:47:02;98907.75;;;23.33;86.68
7109;BME280;29079;41.930;25.558;2023-07-02T07:49:51;98908.34;;;23.46;86.29
7109;BME280;29079;41.930;25.558;2023-07-02T07:52:39;98909.41;;;23.81;84.94
7109;BME280;29079;41.930;25.558;2023-07-02T07:55:27;98914.88;;;23.81;85.69
7109;BME280;29079;41.930;25.558;2023-07-02T07:58:15;98853.19;;;23.39;85.00
7109;BME280;29079;41.930;25.558;2023-07-02T08:01:03;98923.16;;;23.62;84.15
7109;BME280;29079;41.930;25.558;2023-07-02T08:03:51;98914.03;;;23.80;84.72
7109;BME280;29079;41.930;25.558;2023-07-02T08:06:41;98904.78;;;23.81;84.16
7109;BME280;29079;41.930;25.558;2023-07-02T08:09:31;98903.97;;;23.93;83.64
7109;BME280;29079;41.930;25.558;2023-07-02T08:12:18;98895.09;;;23.97;83.63
7109;BME280;29079;41.930;25.558;2023-07-02T08:15:07;98895.84;;;24.33;81.60
7109;BME280;29079;41.930;25.558;2023-07-02T08:17:55;98898.69;;;24.39;81.86
7109;BME280;29079;41.930;25.558;2023-07-02T08:20:45;98890.28;;;24.28;80.92
7109;BME280;29079;41.930;25.558;2023-07-02T08:23:35;98891.91;;;24.41;80.53
7109;BME280;29079;41.930;25.558;2023-07-02T08:26:23;98893.50;;;24.54;80.61
7109;BME280;29079;41.930;25.558;2023-07-02T08:29:11;98889.16;;;24.53;79.20
7109;BME280;29079;41.930;25.558;2023-07-02T08:31:59;98888.41;;;24.58;78.62
7109;BME280;29079;41.930;25.558;2023-07-02T08:34:47;98881.75;;;24.65;79.30
7109;BME280;29079;41.930;25.558;2023-07-02T08:37:37;98862.69;;;24.54;78.75
7109;BME280;29079;41.930;25.558;2023-07-02T08:40:29;98881.94;;;24.76;78.21
7109;BME280;29079;41.930;25.558;2023-07-02T08:43:17;98872.25;;;24.68;78.58
7109;BME280;29079;41.930;25.558;2023-07-02T08:46:05;98883.41;;;24.95;76.80
7109;BME280;29079;41.930;25.558;2023-07-02T08:48:54;98870.00;;;24.94;77.01
7109;BME280;29079;41.930;25.558;2023-07-02T08:51:44;98876.00;;;24.79;75.99
7109;BME280;29079;41.930;25.558;2023-07-02T08:54:32;98873.88;;;24.98;76.39
7109;BME280;29079;41.930;25.558;2023-07-02T08:57:21;98868.53;;;25.20;76.22
7109;BME280;29079;41.930;25.558;2023-07-02T09:00:10;98848.41;;;25.09;74.04
7109;BME280;29079;41.930;25.558;2023-07-02T09:02:58;98873.72;;;25.22;74.38
7109;BME280;29079;41.930;25.558;2023-07-02T09:05:51;98869.09;;;25.22;73.33
7109;BME280;29079;41.930;25.558;2023-07-02T09:08:39;98874.22;;;25.35;72.93
7109;BME280;29079;41.930;25.558;2023-07-02T09:11:27;98859.84;;;25.40;75.27
7109;BME280;29079;41.930;25.558;2023-07-02T09:14:26;98867.41;;;25.33;71.51
7109;BME280;29079;41.930;25.558;2023-07-02T09:17:14;98864.97;;;25.36;72.45
7109;BME280;29079;41.930;25.558;2023-07-02T09:20:04;98842.44;;;25.29;71.70
7109;BME280;29079;41.930;25.558;2023-07-02T09:22:54;98863.72;;;25.27;71.12
7109;BME280;29079;41.930;25.558;2023-07-02T09:25:42;98853.22;;;25.36;71.55
7109;BME280;29079;41.930;25.558;2023-07-02T09:28:31;98856.03;;;25.24;71.61
7109;BME280;29079;41.930;25.558;2023-07-02T09:31:20;98849.25;;;25.44;72.27
7109;BME280;29079;41.930;25.558;2023-07-02T09:34:08;98857.44;;;25.61;71.63
7109;BME280;29079;41.930;25.558;2023-07-02T09:37:00;98848.69;;;25.81;71.30
7109;BME280;29079;41.930;25.558;2023-07-02T09:39:50;98843.50;;;26.01;70.72
7109;BME280;29079;41.930;25.558;2023-07-02T09:42:38;98848.78;;;26.08;70.12
7109;BME280;29079;41.930;25.558;2023-07-02T09:45:27;98850.53;;;25.97;72.26
7109;BME280;29079;41.930;25.558;2023-07-02T09:48:17;98854.44;;;26.01;71.56
7109;BME280;29079;41.930;25.558;2023-07-02T09:51:05;98834.78;;;25.82;71.02
7109;BME280;29079;41.930;25.558;2023-07-02T09:53:53;98842.31;;;25.75;69.54
7109;BME280;29079;41.930;25.558;2023-07-02T09:56:41;98837.84;;;25.69;70.84
7109;BME280;29079;41.930;25.558;2023-07-02T09:59:29;98796.69;;;25.53;73.15
7109;BME280;29079;41.930;25.558;2023-07-02T10:02:17;98844.72;;;25.71;70.41
7109;BME280;29079;41.930;25.558;2023-07-02T10:05:07;98840.25;;;25.43;70.53
7109;BME280;29079;41.930;25.558;2023-07-02T10:07:56;98836.09;;;25.41;70.06
7109;BME280;29079;41.930;25.558;2023-07-02T10:10:44;98840.88;;;25.50;70.07
7109;BME280;29079;41.930;25.558;2023-07-02T10:13:32;98840.16;;;25.38;68.29
7109;BME280;29079;41.930;25.558;2023-07-02T10:16:20;98833.81;;;25.54;71.19
7109;BME280;29079;41.930;25.558;2023-07-02T10:19:08;98835.06;;;25.30;73.44
7109;BME280;29079;41.930;25.558;2023-07-02T10:22:02;98840.28;;;25.65;72.24
7109;BME280;29079;41.930;25.558;2023-07-02T10:24:51;98823.25;;;25.41;73.34
7109;BME280;29079;41.930;25.558;2023-07-02T10:27:41;98824.00;;;25.53;75.66
7109;BME280;29079;41.930;25.558;2023-07-02T10:30:33;98843.69;;;25.55;75.32
7109;BME280;29079;41.930;25.558;2023-07-02T10:33:21;98851.38;;;25.59;73.02
7109;BME280;29079;41.930;25.558;2023-07-02T10:36:17;98849.59;;;25.47;72.69
7109;BME280;29079;41.930;25.558;2023-07-02T10:39:06;98802.41;;;25.18;74.11
7109;BME280;29079;41.930;25.558;2023-07-02T10:42:03;98852.53;;;25.29;77.75
7109;BME280;29079;41.930;25.558;2023-07-02T10:44:52;98864.66;;;24.70;80.95
7109;BME280;29079;41.930;25.558;2023-07-02T10:47:40;98849.88;;;24.54;81.10
7109;BME280;29079;41.930;25.558;2023-07-02T10:50:30;98850.78;;;24.43;81.35
7109;BME280;29079;41.930;25.558;2023-07-02T10:53:20;98843.31;;;24.38;82.82
7109;BME280;29079;41.930;25.558;2023-07-02T10:56:15;98837.38;;;24.41;83.58
7109;BME280;29079;41.930;25.558;2023-07-02T10:59:03;98842.25;;;24.39;85.91
7109;BME280;29079;41.930;25.558;2023-07-02T11:01:51;98835.53;;;23.77;91.77
7109;BME280;29079;41.930;25.558;2023-07-02T11:04:39;98843.25;;;23.45;97.14
7109;BME280;29079;41.930;25.558;2023-07-02T11:07:28;98848.09;;;23.55;97.07
7109;BME280;29079;41.930;25.558;2023-07-02T11:10:19;98853.41;;;23.14;100.00
7109;BME280;29079;41.930;25.558;2023-07-02T11:13:12;98846.66;;;23.52;96.44
7109;BME280;29079;41.930;25.558;2023-07-02T11:16:01;98838.00;;;23.67;95.80
7109;BME280;29079;41.930;25.558;2023-07-02T11:18:49;98852.00;;;23.59;99.35
7109;BME280;29079;41.930;25.558;2023-07-02T11:21:37;98877.94;;;22.95;100.00
7109;BME280;29079;41.930;25.558;2023-07-02T11:24:31;98863.47;;;22.71;100.00
7109;BME280;29079;41.930;25.558;2023-07-02T11:27:21;98888.16;;;21.84;100.00
7109;BME280;29079;41.930;25.558;2023-07-02T11:30:11;98880.19;;;20.88;100.00
7109;BME280;29079;41.930;25.558;2023-07-02T11:32:59;98876.06;;;21.36;100.00
7109;BME280;29079;41.930;25.558;2023-07-02T11:35:47;98803.56;;;20.74;100.00
7109;BME280;29079;41.930;25.558;2023-07-02T11:38:36;98772.59;;;21.88;100.00
7109;BME280;29079;41.930;25.558;2023-07-02T11:41:24;98765.53;;;22.29;100.00
7109;BME280;29079;41.930;25.558;2023-07-02T11:44:12;98773.91;;;21.67;100.00
7109;BME280;29079;41.930;25.558;2023-07-02T11:47:01;98774.94;;;21.66;100.00
7109;BME280;29079;41.930;25.558;2023-07-02T11:49:51;98797.28;;;22.17;100.00
7109;BME280;29079;41.930;25.558;2023-07-02T11:52:39;98809.78;;;21.87;100.00
7109;BME280;29079;41.930;25.558;2023-07-02T11:55:27;98814.94;;;21.33;100.00
7109;BME280;29079;41.930;25.558;2023-07-02T11:58:15;98816.59;;;21.34;100.00
7109;BME280;29079;41.930;25.558;2023-07-02T12:01:03;98821.19;;;21.34;100.00
7109;BME280;29079;41.930;25.558;2023-07-02T12:03:52;98847.41;;;21.65;100.00
7109;BME280;29079;41.930;25.558;2023-07-02T12:06:40;98871.97;;;21.52;100.00
7109;BME280;29079;41.930;25.558;2023-07-02T12:09:28;98881.28;;;21.63;100.00
7109;BME280;29079;41.930;25.558;2023-07-02T12:12:16;98868.31;;;21.39;100.00
7109;BME280;29079;41.930;25.558;2023-07-02T12:15:05;98876.88;;;21.11;100.00
7109;BME280;29079;41.930;25.558;2023-07-02T12:17:53;98866.28;;;21.60;100.00
7109;BME280;29079;41.930;25.558;2023-07-02T12:20:43;98834.16;;;21.76;100.00
7109;BME280;29079;41.930;25.558;2023-07-02T12:23:30;98824.72;;;21.60;100.00
7109;BME280;29079;41.930;25.558;2023-07-02T12:26:18;98834.91;;;21.39;100.00
7109;BME280;29079;41.930;25.558;2023-07-02T12:29:06;98827.06;;;21.31;100.00
7109;BME280;29079;41.930;25.558;2023-07-02T12:31:54;98823.63;;;21.42;100.00
7109;BME280;29079;41.930;25.558;2023-07-02T12:34:42;98812.00;;;21.35;100.00
7109;BME280;29079;41.930;25.558;2023-07-02T12:37:32;98805.50;;;21.61;100.00
7109;BME280;29079;41.930;25.558;2023-07-02T12:40:20;98814.16;;;21.70;100.00
7109;BME280;29079;41.930;25.558;2023-07-02T12:43:08;98816.44;;;21.48;100.00
7109;BME280;29079;41.930;25.558;2023-07-02T12:45:56;98834.97;;;22.43;100.00
7109;BME280;29079;41.930;25.558;2023-07-02T12:48:43;98850.19;;;21.96;100.00
7109;BME280;29079;41.930;25.558;2023-07-02T12:51:32;98868.97;;;21.60;100.00
7109;BME280;29079;41.930;25.558;2023-07-02T12:54:21;98667.94;;;20.30;100.00
7109;BME280;29079;41.930;25.558;2023-07-02T12:57:09;98882.28;;;21.68;100.00
7109;BME280;29079;41.930;25.558;2023-07-02T12:59:57;98879.84;;;21.60;100.00
7109;BME280;29079;41.930;25.558;2023-07-02T13:02:45;98868.53;;;21.13;100.00
7109;BME280;29079;41.930;25.558;2023-07-02T13:05:49;98839.25;;;21.21;100.00
7109;BME280;29079;41.930;25.558;2023-07-02T13:08:37;98820.91;;;21.42;100.00
7109;BME280;29079;41.930;25.558;2023-07-02T13:11:26;98811.59;;;21.31;100.00
7109;BME280;29079;41.930;25.558;2023-07-02T13:14:14;98803.19;;;21.14;100.00
7109;BME280;29079;41.930;25.558;2023-07-02T13:17:02;98828.28;;;21.10;100.00
7109;BME280;29079;41.930;25.558;2023-07-02T13:19:51;98798.50;;;20.78;100.00
7109;BME280;29079;41.930;25.558;2023-07-02T13:22:39;98861.94;;;21.27;100.00
7109;BME280;29079;41.930;25.558;2023-07-02T13:25:27;98869.53;;;20.93;100.00
7109;BME280;29079;41.930;25.558;2023-07-02T13:28:17;98907.47;;;21.25;100.00
7109;BME280;29079;41.930;25.558;2023-07-02T13:31:07;98909.78;;;20.96;100.00
7109;BME280;29079;41.930;25.558;2023-07-02T13:33:57;98871.56;;;20.66;100.00
7109;BME280;29079;41.930;25.558;2023-07-02T13:36:45;98860.63;;;20.86;100.00
7109;BME280;29079;41.930;25.558;2023-07-02T13:39:33;98842.44;;;20.55;100.00
7109;BME280;29079;41.930;25.558;2023-07-02T13:42:21;98826.78;;;21.14;100.00
7109;BME280;29079;41.930;25.558;2023-07-02T13:45:10;98847.13;;;21.04;100.00
7109;BME280;29079;41.930;25.558;2023-07-02T13:47:58;98850.44;;;21.07;100.00
7109;BME280;29079;41.930;25.558;2023-07-02T13:50:46;98851.69;;;21.04;100.00
7109;BME280;29079;41.930;25.558;2023-07-02T13:53:34;98846.50;;;21.02;100.00
7109;BME280;29079;41.930;25.558;2023-07-02T13:56:22;98857.13;;;21.29;100.00
7109;BME280;29079;41.930;25.558;2023-07-02T13:59:11;98852.59;;;20.98;100.00
7109;BME280;29079;41.930;25.558;2023-07-02T14:01:59;98850.91;;;20.72;100.00
7109;BME280;29079;41.930;25.558;2023-07-02T14:04:47;98852.19;;;20.62;100.00
7109;BME280;29079;41.930;25.558;2023-07-02T14:07:35;98855.19;;;20.47;100.00
7109;BME280;29079;41.930;25.558;2023-07-02T14:10:23;98850.78;;;20.92;100.00
7109;BME280;29079;41.930;25.558;2023-07-02T14:13:11;98860.44;;;20.81;100.00
7109;BME280;29079;41.930;25.558;2023-07-02T14:16:01;98836.75;;;20.69;100.00
7109;BME280;29079;41.930;25.558;2023-07-02T14:18:49;98837.41;;;20.58;100.00
7109;BME280;29079;41.930;25.558;2023-07-02T14:21:36;98847.00;;;20.61;100.00
7109;BME280;29079;41.930;25.558;2023-07-02T14:24:24;98852.69;;;20.46;100.00
7109;BME280;29079;41.930;25.558;2023-07-02T14:27:12;98856.78;;;20.23;100.00
7109;BME280;29079;41.930;25.558;2023-07-02T14:30:00;98863.91;;;20.11;100.00
7109;BME280;29079;41.930;25.558;2023-07-02T14:32:53;98872.72;;;20.45;100.00
7109;BME280;29079;41.930;25.558;2023-07-02T14:35:41;98868.78;;;20.41;100.00
7109;BME280;29079;41.930;25.558;2023-07-02T14:38:29;98885.34;;;20.58;100.00
7109;BME280;29079;41.930;25.558;2023-07-02T14:41:18;98886.22;;;20.13;100.00
7109;BME280;29079;41.930;25.558;2023-07-02T14:44:05;98829.75;;;20.10;100.00
7109;BME280;29079;41.930;25.558;2023-07-02T14:46:53;98884.31;;;20.59;100.00